sensor_id;sensor_type;location;lat;lon;timestamp;P1;durP1;ratioP1;P2;durP2;ratioP2
7104;SDS011;3594;42.152;24.714;2022-12-29T00:02:09;6.47;;;4.20;;
7104;SDS011;3594;42.152;24.714;2022-12-29T00:04:35;4.13;;;3.43;;
7104;SDS011;3594;42.152;24.714;2022-12-29T00:07:00;3.83;;;3.20;;
7104;SDS011;3594;42.152;24.714;2022-12-29T00:09:26;8.60;;;4.03;;
7104;SDS011;3594;42.152;24.714;2022-12-29T00:11:51;5.80;;;3.93;;
7104;SDS011;3594;42.152;24.714;2022-12-29T00:14:17;5.40;;;3.57;;
7104;SDS011;3594;42.152;24.714;2022-12-29T00:17:01;4.87;;;3.13;;
7104;SDS011;3594;42.152;24.714;2022-12-29T00:19:27;5.47;;;3.17;;
7104;SDS011;3594;42.152;24.714;2022-12-29T00:22:12;5.70;;;3.97;;
7104;SDS011;3594;42.152;24.714;2022-12-29T00:24:57;9.90;;;4.10;;
7104;SDS011;3594;42.152;24.714;2022-12-29T00:27:41;5.70;;;3.43;;
7104;SDS011;3594;42.152;24.714;2022-12-29T00:30:25;6.83;;;4.70;;
7104;SDS011;3594;42.152;24.714;2022-12-29T00:33:13;6.83;;;4.43;;
7104;SDS011;3594;42.152;24.714;2022-12-29T00:36:02;9.47;;;5.10;;
7104;SDS011;3594;42.152;24.714;2022-12-29T00:38:28;8.23;;;4.40;;
7104;SDS011;3594;42.152;24.714;2022-12-29T00:41:14;8.00;;;4.60;;
7104;SDS011;3594;42.152;24.714;2022-12-29T00:43:58;6.93;;;5.07;;
7104;SDS011;3594;42.152;24.714;2022-12-29T00:46:35;12.63;;;4.80;;
7104;SDS011;3594;42.152;24.714;2022-12-29T00:49:02;8.43;;;4.97;;
7104;SDS011;3594;42.152;24.714;2022-12-29T00:51:47;6.90;;;5.13;;
7104;SDS011;3594;42.152;24.714;2022-12-29T00:54:13;8.13;;;5.07;;
7104;SDS011;3594;42.152;24.714;2022-12-29T00:56:39;10.03;;;5.17;;
7104;SDS011;3594;42.152;24.714;2022-12-29T00:59:06;5.57;;;4.40;;
7104;SDS011;3594;42.152;24.714;2022-12-29T01:01:34;8.90;;;5.10;;
7104;SDS011;3594;42.152;24.714;2022-12-29T01:04:00;7.93;;;4.67;;
7104;SDS011;3594;42.152;24.714;2022-12-29T01:06:25;5.80;;;4.50;;
7104;SDS011;3594;42.152;24.714;2022-12-29T01:08:51;6.07;;;4.07;;
7104;SDS011;3594;42.152;24.714;2022-12-29T01:11:36;5.10;;;4.27;;
7104;SDS011;3594;42.152;24.714;2022-12-29T01:14:02;9.63;;;5.23;;
7104;SDS011;3594;42.152;24.714;2022-12-29T01:16:27;7.63;;;3.83;;
7104;SDS011;3594;42.152;24.714;2022-12-29T01:18:53;7.90;;;4.90;;
7104;SDS011;3594;42.152;24.714;2022-12-29T01:21:18;8.20;;;4.40;;
7104;SDS011;3594;42.152;24.714;2022-12-29T01:23:44;5.80;;;4.30;;
7104;SDS011;3594;42.152;24.714;2022-12-29T01:26:10;9.23;;;4.80;;
7104;SDS011;3594;42.152;24.714;2022-12-29T01:28:36;10.77;;;5.23;;
7104;SDS011;3594;42.152;24.714;2022-12-29T01:31:04;7.90;;;5.17;;
7104;SDS011;3594;42.152;24.714;2022-12-29T01:33:30;8.37;;;5.50;;
7104;SDS011;3594;42.152;24.714;2022-12-29T01:35:59;7.43;;;4.80;;
7104;SDS011;3594;42.152;24.714;2022-12-29T01:38:25;10.07;;;5.40;;
7104;SDS011;3594;42.152;24.714;2022-12-29T01:40:51;13.17;;;6.50;;
7104;SDS011;3594;42.152;24.714;2022-12-29T01:43:16;10.17;;;5.30;;
7104;SDS011;3594;42.152;24.714;2022-12-29T01:45:46;11.33;;;6.03;;
7104;SDS011;3594;42.152;24.714;2022-12-29T01:48:15;10.10;;;5.23;;
7104;SDS011;3594;42.152;24.714;2022-12-29T01:50:46;12.07;;;6.43;;
7104;SDS011;3594;42.152;24.714;2022-12-29T01:53:17;9.80;;;5.67;;
7104;SDS011;3594;42.152;24.714;2022-12-29T01:55:49;9.37;;;6.37;;
7104;SDS011;3594;42.152;24.714;2022-12-29T01:58:20;13.47;;;6.47;;
7104;SDS011;3594;42.152;24.714;2022-12-29T02:00:49;13.73;;;5.13;;
7104;SDS011;3594;42.152;24.714;2022-12-29T02:03:15;10.40;;;5.57;;
7104;SDS011;3594;42.152;24.714;2022-12-29T02:08:17;10.63;;;5.33;;
7104;SDS011;3594;42.152;24.714;2022-12-29T02:10:43;17.83;;;6.43;;
7104;SDS011;3594;42.152;24.714;2022-12-29T02:13:09;11.80;;;6.37;;
7104;SDS011;3594;42.152;24.714;2022-12-29T02:18:29;9.10;;;5.83;;
7104;SDS011;3594;42.152;24.714;2022-12-29T02:32:03;7.17;;;5.43;;
7104;SDS011;3594;42.152;24.714;2022-12-29T02:43:14;9.67;;;6.13;;
7104;SDS011;3594;42.152;24.714;2022-12-29T02:51:05;11.10;;;4.80;;
7104;SDS011;3594;42.152;24.714;2022-12-29T02:53:37;12.93;;;6.60;;
7104;SDS011;3594;42.152;24.714;2022-12-29T02:56:22;18.33;;;9.00;;
7104;SDS011;3594;42.152;24.714;2022-12-29T02:58:48;13.23;;;6.27;;
7104;SDS011;3594;42.152;24.714;2022-12-29T03:07:28;7.23;;;5.17;;
7104;SDS011;3594;42.152;24.714;2022-12-29T03:15:53;6.93;;;4.60;;
7104;SDS011;3594;42.152;24.714;2022-12-29T03:21:36;10.47;;;6.87;;
7104;SDS011;3594;42.152;24.714;2022-12-29T03:24:28;12.83;;;6.33;;
7104;SDS011;3594;42.152;24.714;2022-12-29T03:26:57;11.93;;;7.03;;
7104;SDS011;3594;42.152;24.714;2022-12-29T03:29:25;9.23;;;6.03;;
7104;SDS011;3594;42.152;24.714;2022-12-29T03:31:55;11.13;;;6.27;;
7104;SDS011;3594;42.152;24.714;2022-12-29T03:34:21;10.00;;;5.77;;
7104;SDS011;3594;42.152;24.714;2022-12-29T03:36:53;10.63;;;5.57;;
7104;SDS011;3594;42.152;24.714;2022-12-29T03:39:30;8.93;;;5.80;;
7104;SDS011;3594;42.152;24.714;2022-12-29T03:41:58;7.83;;;5.30;;
7104;SDS011;3594;42.152;24.714;2022-12-29T03:44:31;11.20;;;6.13;;
7104;SDS011;3594;42.152;24.714;2022-12-29T03:47:01;13.47;;;7.00;;
7104;SDS011;3594;42.152;24.714;2022-12-29T03:49:27;11.43;;;5.40;;
7104;SDS011;3594;42.152;24.714;2022-12-29T03:51:53;10.20;;;5.30;;
7104;SDS011;3594;42.152;24.714;2022-12-29T03:54:18;9.67;;;5.60;;
7104;SDS011;3594;42.152;24.714;2022-12-29T03:56:44;7.60;;;4.70;;
7104;SDS011;3594;42.152;24.714;2022-12-29T03:59:09;8.27;;;5.93;;
7104;SDS011;3594;42.152;24.714;2022-12-29T04:01:34;12.27;;;5.97;;
7104;SDS011;3594;42.152;24.714;2022-12-29T04:04:00;9.80;;;4.47;;
7104;SDS011;3594;42.152;24.714;2022-12-29T04:06:25;6.90;;;5.10;;
7104;SDS011;3594;42.152;24.714;2022-12-29T04:08:51;10.23;;;6.50;;
7104;SDS011;3594;42.152;24.714;2022-12-29T04:11:16;8.27;;;5.50;;
7104;SDS011;3594;42.152;24.714;2022-12-29T04:13:41;10.30;;;5.40;;
7104;SDS011;3594;42.152;24.714;2022-12-29T04:16:07;9.73;;;5.33;;
7104;SDS011;3594;42.152;24.714;2022-12-29T04:18:33;13.00;;;5.30;;
7104;SDS011;3594;42.152;24.714;2022-12-29T04:20:58;10.53;;;5.53;;
7104;SDS011;3594;42.152;24.714;2022-12-29T04:23:28;8.83;;;5.93;;
7104;SDS011;3594;42.152;24.714;2022-12-29T04:25:55;10.23;;;6.43;;
7104;SDS011;3594;42.152;24.714;2022-12-29T04:28:20;10.63;;;6.00;;
7104;SDS011;3594;42.152;24.714;2022-12-29T04:30:46;13.40;;;6.53;;
7104;SDS011;3594;42.152;24.714;2022-12-29T04:33:12;11.73;;;6.53;;
7104;SDS011;3594;42.152;24.714;2022-12-29T04:35:37;10.07;;;6.27;;
7104;SDS011;3594;42.152;24.714;2022-12-29T04:38:03;11.60;;;6.00;;
7104;SDS011;3594;42.152;24.714;2022-12-29T04:40:28;9.43;;;5.60;;
7104;SDS011;3594;42.152;24.714;2022-12-29T04:42:54;8.73;;;4.90;;
7104;SDS011;3594;42.152;24.714;2022-12-29T04:45:19;14.13;;;6.23;;
7104;SDS011;3594;42.152;24.714;2022-12-29T04:47:45;9.40;;;5.37;;
7104;SDS011;3594;42.152;24.714;2022-12-29T04:50:10;10.43;;;5.87;;
7104;SDS011;3594;42.152;24.714;2022-12-29T04:52:36;11.83;;;5.77;;
7104;SDS011;3594;42.152;24.714;2022-12-29T04:55:02;8.07;;;5.57;;
7104;SDS011;3594;42.152;24.714;2022-12-29T04:57:28;9.90;;;6.00;;
7104;SDS011;3594;42.152;24.714;2022-12-29T04:59:53;10.87;;;5.47;;
7104;SDS011;3594;42.152;24.714;2022-12-29T05:02:19;7.40;;;5.03;;
7104;SDS011;3594;42.152;24.714;2022-12-29T05:04:44;8.83;;;5.10;;
7104;SDS011;3594;42.152;24.714;2022-12-29T05:07:11;9.00;;;5.23;;
7104;SDS011;3594;42.152;24.714;2022-12-29T05:09:36;9.13;;;5.33;;
7104;SDS011;3594;42.152;24.714;2022-12-29T05:12:02;6.60;;;4.50;;
7104;SDS011;3594;42.152;24.714;2022-12-29T05:14:27;10.80;;;4.70;;
7104;SDS011;3594;42.152;24.714;2022-12-29T05:20:15;10.77;;;5.77;;
7104;SDS011;3594;42.152;24.714;2022-12-29T05:22:40;6.23;;;5.30;;
7104;SDS011;3594;42.152;24.714;2022-12-29T05:25:06;11.87;;;5.93;;
7104;SDS011;3594;42.152;24.714;2022-12-29T05:27:32;8.87;;;5.30;;
7104;SDS011;3594;42.152;24.714;2022-12-29T05:29:57;11.53;;;5.63;;
7104;SDS011;3594;42.152;24.714;2022-12-29T05:32:22;7.63;;;4.73;;
7104;SDS011;3594;42.152;24.714;2022-12-29T05:34:48;7.60;;;5.43;;
7104;SDS011;3594;42.152;24.714;2022-12-29T05:37:13;8.57;;;5.47;;
7104;SDS011;3594;42.152;24.714;2022-12-29T05:39:39;7.50;;;4.47;;
7104;SDS011;3594;42.152;24.714;2022-12-29T05:42:04;18.87;;;6.83;;
7104;SDS011;3594;42.152;24.714;2022-12-29T05:44:30;10.60;;;5.80;;
7104;SDS011;3594;42.152;24.714;2022-12-29T05:46:55;10.07;;;5.83;;
7104;SDS011;3594;42.152;24.714;2022-12-29T05:49:20;10.93;;;5.37;;
7104;SDS011;3594;42.152;24.714;2022-12-29T05:55:07;10.60;;;5.00;;
7104;SDS011;3594;42.152;24.714;2022-12-29T05:57:33;10.07;;;5.93;;
7104;SDS011;3594;42.152;24.714;2022-12-29T05:59:58;9.77;;;5.47;;
7104;SDS011;3594;42.152;24.714;2022-12-29T06:02:24;11.73;;;6.93;;
7104;SDS011;3594;42.152;24.714;2022-12-29T06:04:49;13.83;;;6.47;;
7104;SDS011;3594;42.152;24.714;2022-12-29T06:07:14;5.83;;;5.23;;
7104;SDS011;3594;42.152;24.714;2022-12-29T06:09:40;5.07;;;4.00;;
7104;SDS011;3594;42.152;24.714;2022-12-29T06:12:05;8.20;;;4.83;;
7104;SDS011;3594;42.152;24.714;2022-12-29T06:14:31;6.70;;;4.10;;
7104;SDS011;3594;42.152;24.714;2022-12-29T06:16:56;8.73;;;4.50;;
7104;SDS011;3594;42.152;24.714;2022-12-29T06:19:22;11.50;;;7.03;;
7104;SDS011;3594;42.152;24.714;2022-12-29T06:21:47;8.33;;;4.93;;
7104;SDS011;3594;42.152;24.714;2022-12-29T06:24:13;6.83;;;4.87;;
7104;SDS011;3594;42.152;24.714;2022-12-29T06:26:38;8.23;;;5.50;;
7104;SDS011;3594;42.152;24.714;2022-12-29T06:29:05;10.13;;;5.77;;
7104;SDS011;3594;42.152;24.714;2022-12-29T06:31:31;10.30;;;5.87;;
7104;SDS011;3594;42.152;24.714;2022-12-29T06:33:57;11.27;;;6.47;;
7104;SDS011;3594;42.152;24.714;2022-12-29T06:36:22;11.73;;;6.33;;
7104;SDS011;3594;42.152;24.714;2022-12-29T06:38:48;13.30;;;7.27;;
7104;SDS011;3594;42.152;24.714;2022-12-29T06:41:14;10.97;;;6.43;;
7104;SDS011;3594;42.152;24.714;2022-12-29T06:43:39;13.93;;;6.07;;
7104;SDS011;3594;42.152;24.714;2022-12-29T06:46:05;7.40;;;5.27;;
7104;SDS011;3594;42.152;24.714;2022-12-29T06:48:30;8.50;;;5.93;;
7104;SDS011;3594;42.152;24.714;2022-12-29T06:50:56;10.73;;;4.97;;
7104;SDS011;3594;42.152;24.714;2022-12-29T06:53:21;8.70;;;5.93;;
7104;SDS011;3594;42.152;24.714;2022-12-29T06:55:46;8.67;;;6.60;;
7104;SDS011;3594;42.152;24.714;2022-12-29T06:58:12;17.87;;;5.00;;
7104;SDS011;3594;42.152;24.714;2022-12-29T07:00:37;8.47;;;5.10;;
7104;SDS011;3594;42.152;24.714;2022-12-29T07:03:03;7.30;;;6.00;;
7104;SDS011;3594;42.152;24.714;2022-12-29T07:05:28;6.50;;;4.07;;
7104;SDS011;3594;42.152;24.714;2022-12-29T07:07:56;6.67;;;4.30;;
7104;SDS011;3594;42.152;24.714;2022-12-29T07:10:21;7.60;;;4.93;;
7104;SDS011;3594;42.152;24.714;2022-12-29T07:12:47;6.93;;;4.30;;
7104;SDS011;3594;42.152;24.714;2022-12-29T07:15:13;5.60;;;4.30;;
7104;SDS011;3594;42.152;24.714;2022-12-29T07:17:38;6.40;;;3.90;;
7104;SDS011;3594;42.152;24.714;2022-12-29T07:20:04;8.67;;;4.50;;
7104;SDS011;3594;42.152;24.714;2022-12-29T07:22:31;13.77;;;4.83;;
7104;SDS011;3594;42.152;24.714;2022-12-29T07:24:56;8.20;;;5.33;;
7104;SDS011;3594;42.152;24.714;2022-12-29T07:27:21;9.80;;;5.43;;
7104;SDS011;3594;42.152;24.714;2022-12-29T07:29:47;8.00;;;5.50;;
7104;SDS011;3594;42.152;24.714;2022-12-29T07:32:12;11.13;;;6.37;;
7104;SDS011;3594;42.152;24.714;2022-12-29T07:34:38;8.43;;;4.63;;
7104;SDS011;3594;42.152;24.714;2022-12-29T07:37:04;9.07;;;6.03;;
7104;SDS011;3594;42.152;24.714;2022-12-29T07:39:30;12.07;;;5.50;;
7104;SDS011;3594;42.152;24.714;2022-12-29T07:41:55;11.77;;;6.27;;
7104;SDS011;3594;42.152;24.714;2022-12-29T07:44:21;7.57;;;4.53;;
7104;SDS011;3594;42.152;24.714;2022-12-29T07:46:46;13.73;;;5.47;;
7104;SDS011;3594;42.152;24.714;2022-12-29T07:49:12;11.80;;;5.90;;
7104;SDS011;3594;42.152;24.714;2022-12-29T07:51:37;9.63;;;5.63;;
7104;SDS011;3594;42.152;24.714;2022-12-29T07:54:02;10.83;;;5.50;;
7104;SDS011;3594;42.152;24.714;2022-12-29T07:56:28;9.47;;;4.37;;
7104;SDS011;3594;42.152;24.714;2022-12-29T07:58:53;7.30;;;4.70;;
7104;SDS011;3594;42.152;24.714;2022-12-29T08:01:19;10.20;;;5.57;;
7104;SDS011;3594;42.152;24.714;2022-12-29T08:03:44;8.40;;;4.70;;
7104;SDS011;3594;42.152;24.714;2022-12-29T08:06:10;9.57;;;5.40;;
7104;SDS011;3594;42.152;24.714;2022-12-29T08:08:36;11.80;;;4.70;;
7104;SDS011;3594;42.152;24.714;2022-12-29T08:11:01;9.83;;;5.63;;
7104;SDS011;3594;42.152;24.714;2022-12-29T08:13:27;10.77;;;6.23;;
7104;SDS011;3594;42.152;24.714;2022-12-29T08:15:52;13.90;;;7.43;;
7104;SDS011;3594;42.152;24.714;2022-12-29T08:18:18;9.83;;;6.03;;
7104;SDS011;3594;42.152;24.714;2022-12-29T08:20:43;8.17;;;5.83;;
7104;SDS011;3594;42.152;24.714;2022-12-29T08:23:08;7.30;;;5.30;;
7104;SDS011;3594;42.152;24.714;2022-12-29T08:25:34;8.07;;;5.43;;
7104;SDS011;3594;42.152;24.714;2022-12-29T08:27:59;10.33;;;6.37;;
7104;SDS011;3594;42.152;24.714;2022-12-29T08:30:24;9.87;;;6.10;;
7104;SDS011;3594;42.152;24.714;2022-12-29T08:32:50;9.77;;;5.90;;
7104;SDS011;3594;42.152;24.714;2022-12-29T08:35:15;17.57;;;7.03;;
7104;SDS011;3594;42.152;24.714;2022-12-29T08:37:41;10.80;;;6.53;;
7104;SDS011;3594;42.152;24.714;2022-12-29T08:40:06;6.40;;;4.80;;
7104;SDS011;3594;42.152;24.714;2022-12-29T08:42:32;9.77;;;5.70;;
7104;SDS011;3594;42.152;24.714;2022-12-29T08:44:58;8.03;;;5.90;;
7104;SDS011;3594;42.152;24.714;2022-12-29T08:47:24;9.97;;;6.43;;
7104;SDS011;3594;42.152;24.714;2022-12-29T08:49:50;13.70;;;6.57;;
7104;SDS011;3594;42.152;24.714;2022-12-29T08:52:16;13.40;;;6.27;;
7104;SDS011;3594;42.152;24.714;2022-12-29T08:54:42;13.43;;;6.17;;
7104;SDS011;3594;42.152;24.714;2022-12-29T08:57:07;14.43;;;6.47;;
7104;SDS011;3594;42.152;24.714;2022-12-29T08:59:33;10.00;;;5.60;;
7104;SDS011;3594;42.152;24.714;2022-12-29T09:01:58;10.27;;;6.33;;
7104;SDS011;3594;42.152;24.714;2022-12-29T09:04:23;8.47;;;5.53;;
7104;SDS011;3594;42.152;24.714;2022-12-29T09:06:49;10.03;;;6.13;;
7104;SDS011;3594;42.152;24.714;2022-12-29T09:09:14;10.83;;;6.60;;
7104;SDS011;3594;42.152;24.714;2022-12-29T09:11:41;11.83;;;7.80;;
7104;SDS011;3594;42.152;24.714;2022-12-29T09:14:06;14.03;;;7.90;;
7104;SDS011;3594;42.152;24.714;2022-12-29T09:16:32;12.83;;;7.17;;
7104;SDS011;3594;42.152;24.714;2022-12-29T09:18:58;11.93;;;6.40;;
7104;SDS011;3594;42.152;24.714;2022-12-29T09:21:24;12.60;;;6.40;;
7104;SDS011;3594;42.152;24.714;2022-12-29T09:23:49;13.87;;;6.27;;
7104;SDS011;3594;42.152;24.714;2022-12-29T09:26:15;14.10;;;8.53;;
7104;SDS011;3594;42.152;24.714;2022-12-29T09:28:41;15.00;;;6.77;;
7104;SDS011;3594;42.152;24.714;2022-12-29T09:31:07;12.50;;;6.33;;
7104;SDS011;3594;42.152;24.714;2022-12-29T09:33:32;16.03;;;8.03;;
7104;SDS011;3594;42.152;24.714;2022-12-29T09:36:01;13.90;;;8.00;;
7104;SDS011;3594;42.152;24.714;2022-12-29T09:38:28;12.97;;;7.80;;
7104;SDS011;3594;42.152;24.714;2022-12-29T09:41:29;11.67;;;7.40;;
7104;SDS011;3594;42.152;24.714;2022-12-29T09:43:56;11.50;;;6.77;;
7104;SDS011;3594;42.152;24.714;2022-12-29T09:46:32;11.77;;;7.40;;
7104;SDS011;3594;42.152;24.714;2022-12-29T09:51:57;18.27;;;7.73;;
7104;SDS011;3594;42.152;24.714;2022-12-29T09:55:15;14.43;;;7.43;;
7104;SDS011;3594;42.152;24.714;2022-12-29T09:59:59;14.23;;;6.53;;
7104;SDS011;3594;42.152;24.714;2022-12-29T10:02:48;12.77;;;5.75;;
7104;SDS011;3594;42.152;24.714;2022-12-29T10:08:10;6.88;;;4.43;;
7104;SDS011;3594;42.152;24.714;2022-12-29T10:10:38;10.75;;;5.80;;
7104;SDS011;3594;42.152;24.714;2022-12-29T10:18:54;16.08;;;7.22;;
7104;SDS011;3594;42.152;24.714;2022-12-29T10:24:12;13.88;;;6.25;;
7104;SDS011;3594;42.152;24.714;2022-12-29T10:26:42;11.55;;;5.60;;
7104;SDS011;3594;42.152;24.714;2022-12-29T10:31:44;10.75;;;6.32;;
7104;SDS011;3594;42.152;24.714;2022-12-29T10:37:24;10.02;;;5.63;;
7104;SDS011;3594;42.152;24.714;2022-12-29T10:39:50;12.07;;;6.65;;
7104;SDS011;3594;42.152;24.714;2022-12-29T10:42:25;12.30;;;6.03;;
7104;SDS011;3594;42.152;24.714;2022-12-29T10:44:53;12.18;;;5.97;;
7104;SDS011;3594;42.152;24.714;2022-12-29T10:47:24;9.60;;;5.65;;
7104;SDS011;3594;42.152;24.714;2022-12-29T10:49:53;15.05;;;5.75;;
7104;SDS011;3594;42.152;24.714;2022-12-29T10:52:19;11.27;;;4.90;;
7104;SDS011;3594;42.152;24.714;2022-12-29T10:54:57;10.00;;;5.57;;
7104;SDS011;3594;42.152;24.714;2022-12-29T10:57:38;7.97;;;5.20;;
7104;SDS011;3594;42.152;24.714;2022-12-29T11:08:02;10.45;;;5.68;;
7104;SDS011;3594;42.152;24.714;2022-12-29T11:10:42;15.43;;;5.57;;
7104;SDS011;3594;42.152;24.714;2022-12-29T11:13:19;10.20;;;5.82;;
7104;SDS011;3594;42.152;24.714;2022-12-29T11:15:50;15.10;;;7.05;;
7104;SDS011;3594;42.152;24.714;2022-12-29T11:18:20;10.65;;;5.88;;
7104;SDS011;3594;42.152;24.714;2022-12-29T11:20:46;14.95;;;7.05;;
7104;SDS011;3594;42.152;24.714;2022-12-29T11:23:23;13.55;;;5.90;;
7104;SDS011;3594;42.152;24.714;2022-12-29T11:29:04;12.10;;;6.13;;
7104;SDS011;3594;42.152;24.714;2022-12-29T11:31:49;10.43;;;6.28;;
7104;SDS011;3594;42.152;24.714;2022-12-29T11:36:50;15.38;;;7.68;;
7104;SDS011;3594;42.152;24.714;2022-12-29T11:39:24;15.80;;;7.50;;
7104;SDS011;3594;42.152;24.714;2022-12-29T11:41:54;11.18;;;6.93;;
7104;SDS011;3594;42.152;24.714;2022-12-29T11:44:19;13.52;;;7.10;;
7104;SDS011;3594;42.152;24.714;2022-12-29T11:46:46;11.18;;;6.72;;
7104;SDS011;3594;42.152;24.714;2022-12-29T11:49:19;17.35;;;6.90;;
7104;SDS011;3594;42.152;24.714;2022-12-29T11:51:47;14.50;;;6.93;;
7104;SDS011;3594;42.152;24.714;2022-12-29T11:54:22;14.10;;;6.78;;
7104;SDS011;3594;42.152;24.714;2022-12-29T11:56:51;19.45;;;8.80;;
7104;SDS011;3594;42.152;24.714;2022-12-29T12:01:55;15.38;;;7.90;;
7104;SDS011;3594;42.152;24.714;2022-12-29T12:04:23;13.73;;;7.60;;
7104;SDS011;3594;42.152;24.714;2022-12-29T12:09:49;13.57;;;6.90;;
7104;SDS011;3594;42.152;24.714;2022-12-29T12:15:22;15.73;;;6.38;;
7104;SDS011;3594;42.152;24.714;2022-12-29T12:17:55;12.27;;;6.95;;
7104;SDS011;3594;42.152;24.714;2022-12-29T12:26:17;18.25;;;8.25;;
7104;SDS011;3594;42.152;24.714;2022-12-29T12:29:32;12.43;;;6.30;;
7104;SDS011;3594;42.152;24.714;2022-12-29T12:31:46;15.50;;;7.82;;
7104;SDS011;3594;42.152;24.714;2022-12-29T12:34:30;12.13;;;7.82;;
7104;SDS011;3594;42.152;24.714;2022-12-29T12:39:49;15.75;;;6.97;;
7104;SDS011;3594;42.152;24.714;2022-12-29T12:45:17;14.20;;;6.70;;
7104;SDS011;3594;42.152;24.714;2022-12-29T12:50:31;17.98;;;7.22;;
7104;SDS011;3594;42.152;24.714;2022-12-29T13:06:34;19.60;;;8.85;;
7104;SDS011;3594;42.152;24.714;2022-12-29T13:09:42;15.32;;;7.80;;
7104;SDS011;3594;42.152;24.714;2022-12-29T13:17:57;16.00;;;8.07;;
7104;SDS011;3594;42.152;24.714;2022-12-29T13:20:47;18.58;;;9.07;;
7104;SDS011;3594;42.152;24.714;2022-12-29T13:26:02;16.67;;;7.65;;
7104;SDS011;3594;42.152;24.714;2022-12-29T13:28:49;13.75;;;7.85;;
7104;SDS011;3594;42.152;24.714;2022-12-29T13:34:31;15.40;;;7.28;;
7104;SDS011;3594;42.152;24.714;2022-12-29T13:37:07;15.50;;;7.03;;
7104;SDS011;3594;42.152;24.714;2022-12-29T13:39:38;16.00;;;7.32;;
7104;SDS011;3594;42.152;24.714;2022-12-29T13:42:07;15.65;;;7.93;;
7104;SDS011;3594;42.152;24.714;2022-12-29T13:44:34;21.58;;;9.02;;
7104;SDS011;3594;42.152;24.714;2022-12-29T13:47:22;15.77;;;7.93;;
7104;SDS011;3594;42.152;24.714;2022-12-29T13:49:52;11.50;;;7.15;;
7104;SDS011;3594;42.152;24.714;2022-12-29T13:58:19;14.55;;;7.70;;
7104;SDS011;3594;42.152;24.714;2022-12-29T14:00:57;19.15;;;7.72;;
7104;SDS011;3594;42.152;24.714;2022-12-29T14:04:09;18.33;;;7.65;;
7104;SDS011;3594;42.152;24.714;2022-12-29T14:06:38;12.48;;;7.32;;
7104;SDS011;3594;42.152;24.714;2022-12-29T14:09:06;11.27;;;6.72;;
7104;SDS011;3594;42.152;24.714;2022-12-29T14:11:52;15.05;;;6.47;;
7104;SDS011;3594;42.152;24.714;2022-12-29T14:16:46;13.25;;;7.45;;
7104;SDS011;3594;42.152;24.714;2022-12-29T14:21:37;12.98;;;6.57;;
7104;SDS011;3594;42.152;24.714;2022-12-29T14:24:26;14.82;;;7.10;;
7104;SDS011;3594;42.152;24.714;2022-12-29T14:26:52;16.77;;;6.80;;
7104;SDS011;3594;42.152;24.714;2022-12-29T14:31:49;12.75;;;5.97;;
7104;SDS011;3594;42.152;24.714;2022-12-29T14:34:15;14.07;;;7.13;;
7104;SDS011;3594;42.152;24.714;2022-12-29T14:41:59;14.27;;;7.30;;
7104;SDS011;3594;42.152;24.714;2022-12-29T14:44:28;12.50;;;7.13;;
7104;SDS011;3594;42.152;24.714;2022-12-29T14:49:20;15.13;;;8.27;;
7104;SDS011;3594;42.152;24.714;2022-12-29T14:51:49;14.93;;;6.87;;
7104;SDS011;3594;42.152;24.714;2022-12-29T14:57:02;14.37;;;7.50;;
7104;SDS011;3594;42.152;24.714;2022-12-29T14:59:32;14.63;;;7.43;;
7104;SDS011;3594;42.152;24.714;2022-12-29T15:02:01;19.00;;;8.10;;
7104;SDS011;3594;42.152;24.714;2022-12-29T15:04:36;12.60;;;7.37;;
7104;SDS011;3594;42.152;24.714;2022-12-29T15:07:06;25.13;;;8.43;;
7104;SDS011;3594;42.152;24.714;2022-12-29T15:14:58;19.43;;;9.93;;
7104;SDS011;3594;42.152;24.714;2022-12-29T15:19:52;24.90;;;11.20;;
7104;SDS011;3594;42.152;24.714;2022-12-29T15:22:18;19.73;;;9.97;;
7104;SDS011;3594;42.152;24.714;2022-12-29T15:24:44;22.80;;;10.80;;
7104;SDS011;3594;42.152;24.714;2022-12-29T15:27:13;19.43;;;8.53;;
7104;SDS011;3594;42.152;24.714;2022-12-29T15:29:41;19.07;;;9.07;;
7104;SDS011;3594;42.152;24.714;2022-12-29T15:32:22;20.13;;;9.27;;
7104;SDS011;3594;42.152;24.714;2022-12-29T15:34:58;21.17;;;9.00;;
7104;SDS011;3594;42.152;24.714;2022-12-29T15:37:32;22.27;;;9.07;;
7104;SDS011;3594;42.152;24.714;2022-12-29T15:40:00;25.20;;;10.80;;
7104;SDS011;3594;42.152;24.714;2022-12-29T15:45:21;13.77;;;7.67;;
7104;SDS011;3594;42.152;24.714;2022-12-29T15:47:54;21.50;;;10.03;;
7104;SDS011;3594;42.152;24.714;2022-12-29T15:50:28;19.23;;;9.87;;
7104;SDS011;3594;42.152;24.714;2022-12-29T15:52:56;23.60;;;9.97;;
7104;SDS011;3594;42.152;24.714;2022-12-29T15:55:32;21.23;;;11.53;;
7104;SDS011;3594;42.152;24.714;2022-12-29T15:58:00;19.97;;;9.37;;
7104;SDS011;3594;42.152;24.714;2022-12-29T16:00:28;21.00;;;10.00;;
7104;SDS011;3594;42.152;24.714;2022-12-29T16:02:57;21.10;;;9.87;;
7104;SDS011;3594;42.152;24.714;2022-12-29T16:05:31;22.40;;;9.33;;
7104;SDS011;3594;42.152;24.714;2022-12-29T16:07:58;27.60;;;10.20;;
7104;SDS011;3594;42.152;24.714;2022-12-29T16:10:42;13.27;;;7.90;;
7104;SDS011;3594;42.152;24.714;2022-12-29T16:13:24;14.53;;;7.63;;
7104;SDS011;3594;42.152;24.714;2022-12-29T16:15:55;16.30;;;8.77;;
7104;SDS011;3594;42.152;24.714;2022-12-29T16:18:26;18.30;;;8.33;;
7104;SDS011;3594;42.152;24.714;2022-12-29T16:20:54;15.50;;;7.33;;
7104;SDS011;3594;42.152;24.714;2022-12-29T16:23:25;14.07;;;7.67;;
7104;SDS011;3594;42.152;24.714;2022-12-29T16:25:52;14.63;;;8.40;;
7104;SDS011;3594;42.152;24.714;2022-12-29T16:28:20;15.00;;;8.40;;
7104;SDS011;3594;42.152;24.714;2022-12-29T16:30:56;15.37;;;7.30;;
7104;SDS011;3594;42.152;24.714;2022-12-29T16:33:32;20.47;;;9.03;;
7104;SDS011;3594;42.152;24.714;2022-12-29T16:36:02;13.13;;;7.30;;
7104;SDS011;3594;42.152;24.714;2022-12-29T16:38:47;18.17;;;7.83;;
7104;SDS011;3594;42.152;24.714;2022-12-29T16:41:25;14.60;;;7.80;;
7104;SDS011;3594;42.152;24.714;2022-12-29T16:46:43;19.40;;;9.43;;
7104;SDS011;3594;42.152;24.714;2022-12-29T16:49:22;14.53;;;8.73;;
7104;SDS011;3594;42.152;24.714;2022-12-29T16:51:48;13.47;;;7.83;;
7104;SDS011;3594;42.152;24.714;2022-12-29T16:54:21;16.83;;;8.80;;
7104;SDS011;3594;42.152;24.714;2022-12-29T16:57:06;15.00;;;8.57;;
7104;SDS011;3594;42.152;24.714;2022-12-29T16:59:33;13.30;;;8.07;;
7104;SDS011;3594;42.152;24.714;2022-12-29T17:02:06;18.17;;;8.73;;
7104;SDS011;3594;42.152;24.714;2022-12-29T17:04:38;18.60;;;8.13;;
7104;SDS011;3594;42.152;24.714;2022-12-29T17:07:04;17.77;;;9.17;;
7104;SDS011;3594;42.152;24.714;2022-12-29T17:09:40;16.77;;;8.20;;
7104;SDS011;3594;42.152;24.714;2022-12-29T17:12:06;19.93;;;10.23;;
7104;SDS011;3594;42.152;24.714;2022-12-29T17:14:43;17.23;;;8.33;;
7104;SDS011;3594;42.152;24.714;2022-12-29T17:17:15;19.57;;;8.00;;
7104;SDS011;3594;42.152;24.714;2022-12-29T17:19:55;19.83;;;8.80;;
7104;SDS011;3594;42.152;24.714;2022-12-29T17:22:27;20.23;;;8.37;;
7104;SDS011;3594;42.152;24.714;2022-12-29T17:24:54;22.03;;;8.63;;
7104;SDS011;3594;42.152;24.714;2022-12-29T17:29:51;14.23;;;8.37;;
7104;SDS011;3594;42.152;24.714;2022-12-29T17:32:19;16.77;;;8.33;;
7104;SDS011;3594;42.152;24.714;2022-12-29T17:34:45;18.80;;;8.57;;
7104;SDS011;3594;42.152;24.714;2022-12-29T17:37:19;18.00;;;8.93;;
7104;SDS011;3594;42.152;24.714;2022-12-29T17:39:49;16.10;;;8.37;;
7104;SDS011;3594;42.152;24.714;2022-12-29T17:42:16;16.77;;;8.57;;
7104;SDS011;3594;42.152;24.714;2022-12-29T17:44:43;19.80;;;10.13;;
7104;SDS011;3594;42.152;24.714;2022-12-29T17:47:09;15.97;;;8.50;;
7104;SDS011;3594;42.152;24.714;2022-12-29T17:49:35;15.73;;;8.90;;
7104;SDS011;3594;42.152;24.714;2022-12-29T17:52:01;16.80;;;9.57;;
7104;SDS011;3594;42.152;24.714;2022-12-29T17:54:27;22.27;;;9.57;;
7104;SDS011;3594;42.152;24.714;2022-12-29T17:56:53;13.77;;;7.83;;
7104;SDS011;3594;42.152;24.714;2022-12-29T17:59:18;19.47;;;9.10;;
7104;SDS011;3594;42.152;24.714;2022-12-29T18:01:44;18.80;;;9.57;;
7104;SDS011;3594;42.152;24.714;2022-12-29T18:04:12;22.97;;;8.73;;